Time;durP1;ratioP1;P1;durP2;ratioP2;P2;SDS_P1;SDS_P2;PMS_P1;PMS_P2;Temp;Humidity;BMP_temperature;BMP_pressure;BME280_temperature;BME280_humidity;BME280_pressure;Samples;Min_cycle;Max_cycle;Signal;HPM_P1;HPM_P2
2022/06/14 00:00:55;;;;;;;4.20;3.80;;;;;;;22.57;51.09;99100.16;1717434;83;21488;-73
2022/06/14 00:03:28;;;;;;;7.45;4.00;;;;;;;22.52;50.98;99100.39;1710854;82;20979;-77
2022/06/14 00:05:57;;;;;;;7.95;3.95;;;;;;;22.49;50.71;99095.58;1689080;82;21089;-77
2022/06/14 00:08:27;;;;;;;10.45;3.98;;;;;;;22.47;50.70;99088.28;1709402;82;21029;-76
2022/06/14 00:10:56;;;;;;;4.10;3.05;;;;;;;22.50;50.62;99088.16;1719167;82;21512;-77
2022/06/14 00:13:23;;;;;;;3.83;3.30;;;;;;;22.48;50.48;99084.41;1711591;82;20967;-77
2022/06/14 00:15:49;;;;;;;3.62;3.30;;;;;;;22.47;50.36;99088.28;1707819;82;20981;-81
2022/06/14 00:18:17;;;;;;;4.15;2.92;;;;;;;22.47;50.23;99083.38;1709611;82;20947;-76
2022/06/14 00:20:46;;;;;;;6.80;3.17;;;;;;;22.48;50.26;99091.27;1718008;82;21236;-74
2022/06/14 00:23:14;;;;;;;3.47;3.17;;;;;;;22.47;50.24;99082.00;1715031;82;21452;-75
2022/06/14 00:25:44;;;;;;;5.65;2.90;;;;;;;22.45;50.12;99082.91;1709173;82;21072;-76
2022/06/14 00:28:12;;;;;;;3.10;2.85;;;;;;;22.45;50.10;99077.42;1710887;82;21059;-76
2022/06/14 00:30:40;;;;;;;3.37;3.08;;;;;;;22.42;50.15;99078.92;1711485;82;21050;-75
2022/06/14 00:33:07;;;;;;;4.50;2.65;;;;;;;22.39;50.18;99074.14;1712445;83;21379;-77
2022/06/14 00:35:34;;;;;;;2.77;2.55;;;;;;;22.36;50.20;99069.32;1709946;83;20930;-74
2022/06/14 00:38:01;;;;;;;5.58;3.30;;;;;;;22.31;50.52;99073.66;1709249;82;20943;-73
2022/06/14 00:40:31;;;;;;;6.75;3.75;;;;;;;22.22;50.73;99069.43;1709908;83;21038;-73
2022/06/14 00:43:02;;;;;;;3.40;3.10;;;;;;;22.14;50.92;99067.05;1709933;84;21021;-75
2022/06/14 00:45:32;;;;;;;5.53;3.15;;;;;;;22.10;51.08;99068.87;1727948;83;21139;-81
2022/06/14 00:48:07;;;;;;;6.92;3.70;;;;;;;22.04;51.28;99066.92;1729090;82;21027;-80
2022/06/14 00:51:06;;;;;;;4.42;2.72;;;;;;;22.00;51.39;99066.01;1729328;83;21552;-76
2022/06/14 00:53:41;;;;;;;4.70;4.30;;;;;;;22.04;51.09;99068.29;1729429;81;21047;-77
2022/06/14 00:56:19;;;;;;;3.92;3.50;;;;;;;22.01;51.23;99064.88;1713110;82;21067;-76
2022/06/14 00:58:52;;;;;;;3.58;2.50;;;;;;;22.00;51.35;99061.90;1705956;82;20967;-77
2022/06/14 01:01:22;;;;;;;6.60;3.45;;;;;;;21.99;51.65;99059.49;1726036;81;21034;-77
2022/06/14 01:03:57;;;;;;;3.08;2.87;;;;;;;21.92;51.91;99059.23;1711609;82;21061;-77
2022/06/14 01:06:29;;;;;;;5.53;2.85;;;;;;;21.85;52.09;99054.31;1698585;83;20983;-78
2022/06/14 01:09:08;;;;;;;3.10;2.80;;;;;;;21.80;52.24;99054.52;1702409;83;21114;-78
2022/06/14 01:11:43;;;;;;;4.85;3.00;;;;;;;21.77;52.12;99049.73;1727119;82;21079;-77
2022/06/14 01:14:17;;;;;;;7.85;2.92;;;;;;;21.73;52.29;99053.70;1727572;83;21035;-77
2022/06/14 01:16:44;;;;;;;3.37;3.08;;;;;;;21.72;52.38;99051.33;1734329;81;21583;-77
2022/06/14 01:19:22;;;;;;;6.47;3.45;;;;;;;21.71;52.52;99050.52;1727504;83;21054;-79
2022/06/14 01:22:04;;;;;;;3.67;3.20;;;;;;;21.70;52.62;99052.22;1728043;82;21149;-77
2022/06/14 01:24:30;;;;;;;6.53;3.30;;;;;;;21.70;52.73;99048.11;1720943;83;21152;-75
2022/06/14 01:26:57;;;;;;;3.55;3.25;;;;;;;21.68;52.75;99042.16;1710225;83;20953;-74
2022/06/14 01:29:24;;;;;;;4.92;3.00;;;;;;;21.71;52.61;99048.35;1727526;83;22165;-75
2022/06/14 01:31:52;;;;;;;3.55;3.25;;;;;;;21.77;52.49;99043.46;1728941;83;21446;-75
2022/06/14 01:34:19;;;;;;;3.62;3.30;;;;;;;21.80;52.41;99040.03;1728682;82;21031;-74
2022/06/14 01:36:46;;;;;;;5.37;3.27;;;;;;;21.87;52.20;99043.80;1728673;81;21119;-73
2022/06/14 01:39:15;;;;;;;3.17;2.87;;;;;;;21.91;51.94;99034.36;1705343;83;21359;-74
2022/06/14 01:41:55;;;;;;;6.28;4.40;;;;;;;21.99;51.80;99042.49;1728864;83;20944;-74
2022/06/14 01:45:00;;;;;;;4.58;4.05;;;;;;;22.04;51.54;99045.02;1728620;82;21484;-74
2022/06/14 01:47:56;;;;;;;9.38;2.98;;;;;;;22.08;51.41;99049.23;1729199;83;21082;-74
2022/06/14 01:54:13;;;;;;;4.80;3.65;;;;;;;22.16;51.10;99046.38;1728710;81;20998;-73
2022/06/14 01:57:08;;;;;;;3.70;3.33;;;;;;;22.10;51.12;99046.95;1699753;84;21098;-73
2022/06/14 02:00:09;;;;;;;7.72;3.52;;;;;;;22.05;51.32;99034.29;1717959;83;21019;-73
2022/06/14 02:06:04;;;;;;;4.12;3.47;;;;;;;21.98;51.30;99035.98;1729137;82;21939;-75
2022/06/14 02:08:37;;;;;;;4.47;3.70;;;;;;;21.99;51.25;99032.11;1728592;83;20904;-73
2022/06/14 02:11:10;;;;;;;6.22;3.47;;;;;;;22.01;51.31;99030.64;1729030;82;20970;-73
2022/06/14 02:14:02;;;;;;;5.60;3.45;;;;;;;22.05;51.33;99027.44;1728543;82;21110;-74
2022/06/14 02:16:43;;;;;;;3.83;3.52;;;;;;;22.06;51.35;99030.98;1728154;82;21015;-73
2022/06/14 02:19:18;;;;;;;4.10;3.55;;;;;;;21.97;51.62;99031.63;1723893;83;21138;-74
2022/06/14 02:21:49;;;;;;;7.33;3.47;;;;;;;21.86;51.88;99027.17;1728768;83;20980;-74
2022/06/14 02:24:27;;;;;;;6.70;4.08;;;;;;;21.86;51.93;99024.43;1728935;83;21110;-73
2022/06/14 02:27:05;;;;;;;4.28;3.55;;;;;;;21.94;51.88;99035.87;1728906;83;20995;-74
2022/06/14 02:29:39;;;;;;;7.05;3.67;;;;;;;22.00;51.71;99025.50;1727799;82;21032;-74
2022/06/14 02:32:26;;;;;;;12.50;4.08;;;;;;;22.02;51.74;99022.62;1729027;82;21045;-76
2022/06/14 02:35:05;;;;;;;3.65;3.30;;;;;;;21.99;51.73;99020.58;1707808;83;21529;-74
2022/06/14 02:37:40;;;;;;;3.58;3.27;;;;;;;21.93;51.92;99015.63;1728006;83;21377;-75
2022/06/14 02:40:16;;;;;;;4.75;3.58;;;;;;;21.88;52.09;99024.06;1726642;83;21017;-74
2022/06/14 02:42:55;;;;;;;6.62;3.50;;;;;;;21.85;52.17;99025.56;1728784;82;21056;-75
2022/06/14 02:45:33;;;;;;;4.25;3.40;;;;;;;21.77;52.49;99026.47;1728720;81;21748;-74
2022/06/14 02:48:11;;;;;;;3.80;3.50;;;;;;;21.64;53.01;99022.89;1726671;81;21008;-74
2022/06/14 02:50:47;;;;;;;4.42;3.62;;;;;;;21.56;53.27;99021.62;1726058;81;21606;-75
2022/06/14 02:53:22;;;;;;;5.87;4.80;;;;;;;21.54;53.35;99017.05;1728736;83;20971;-75
2022/06/14 02:55:54;;;;;;;3.58;3.30;;;;;;;21.52;53.27;99016.61;1728719;83;20955;-74
2022/06/14 02:58:54;;;;;;;4.15;3.33;;;;;;;21.53;53.28;99014.91;1728695;81;21122;-74
2022/06/14 03:01:31;;;;;;;5.22;3.42;;;;;;;21.48;53.42;99012.95;1699442;84;21520;-74
2022/06/14 03:04:20;;;;;;;5.17;4.03;;;;;;;21.44;53.73;99014.17;1700074;84;21594;-75
2022/06/14 03:07:01;;;;;;;6.70;3.77;;;;;;;21.38;54.08;99012.00;1703764;83;21004;-75
2022/06/14 03:09:31;;;;;;;5.17;4.12;;;;;;;21.29;54.40;99009.36;1720082;81;20967;-74
2022/06/14 03:12:40;;;;;;;10.20;4.35;;;;;;;21.22;54.58;99011.83;1728608;83;21213;-74
2022/06/14 03:15:12;;;;;;;4.72;3.77;;;;;;;21.18;54.74;99005.44;1728996;83;21596;-73
2022/06/14 03:17:54;;;;;;;4.30;3.95;;;;;;;21.14;55.06;99001.22;1715587;81;21083;-75
2022/06/14 03:20:30;;;;;;;5.78;4.60;;;;;;;21.13;55.14;99006.98;1728814;83;20951;-74
2022/06/14 03:23:05;;;;;;;5.70;4.72;;;;;;;21.12;55.39;99008.11;1728483;83;21083;-74
2022/06/14 03:25:50;;;;;;;6.08;3.87;;;;;;;21.11;55.50;99011.41;1728763;83;21282;-73
2022/06/14 03:28:40;;;;;;;10.48;6.15;;;;;;;21.16;55.77;99007.70;1714658;81;20987;-75
2022/06/14 03:31:35;;;;;;;5.50;5.00;;;;;;;21.21;55.93;99004.76;1728806;83;20901;-74
2022/06/14 03:34:28;;;;;;;6.50;5.67;;;;;;;21.27;56.01;99010.25;1728557;83;20989;-73
2022/06/14 03:36:56;;;;;;;6.75;4.67;;;;;;;21.31;56.07;99010.61;1720344;82;21042;-73
2022/06/14 03:39:26;;;;;;;5.75;4.72;;;;;;;21.35;56.15;99003.89;1719052;83;21224;-74
2022/06/14 03:41:53;;;;;;;6.65;5.97;;;;;;;21.39;56.16;99002.07;1728522;81;21063;-74
2022/06/14 03:44:22;;;;;;;4.75;4.35;;;;;;;21.40;56.11;98996.03;1703293;83;22201;-75
2022/06/14 03:47:23;;;;;;;6.47;4.87;;;;;;;21.45;55.80;98999.92;1728683;82;20987;-75
2022/06/14 03:50:03;;;;;;;6.60;5.87;;;;;;;21.49;55.92;98994.80;1727453;83;21024;-75
2022/06/14 03:52:54;;;;;;;5.03;4.62;;;;;;;21.55;56.08;98992.66;1717024;83;21951;-74
2022/06/14 03:55:35;;;;;;;7.83;4.95;;;;;;;21.59;56.06;98998.48;1707198;83;21003;-75
2022/06/14 03:58:23;;;;;;;6.45;5.78;;;;;;;21.62;56.09;98988.23;1707729;82;21065;-75
2022/06/14 04:00:56;;;;;;;6.10;5.58;;;;;;;21.66;56.09;99001.47;1702836;83;21079;-76
2022/06/14 04:03:59;;;;;;;5.53;5.03;;;;;;;21.68;56.46;99032.59;1729475;81;21027;-75
2022/06/14 04:06:58;;;;;;;11.57;4.83;;;;;;;21.70;56.52;99033.06;1696763;84;21141;-74
2022/06/14 04:09:50;;;;;;;13.62;6.08;;;;;;;21.71;56.35;99053.83;1699440;83;21027;-74
2022/06/14 04:12:38;;;;;;;6.35;5.72;;;;;;;21.75;56.28;99050.63;1722552;83;21059;-75
2022/06/14 04:15:20;;;;;;;5.40;4.90;;;;;;;21.78;56.48;99051.31;1707596;83;21011;-74
2022/06/14 04:18:34;;;;;;;8.70;5.83;;;;;;;21.83;56.21;99046.99;1707052;82;21504;-74
2022/06/14 04:20:36;;;;;;;7.17;4.92;;;;;;;21.88;56.26;99060.47;1707087;83;21067;-75
2022/06/14 04:23:29;;;;;;;5.62;5.03;;;;;;;21.95;55.88;99079.91;1713123;83;21072;-78
2022/06/14 04:26:07;;;;;;;10.23;5.65;;;;;;;22.00;54.99;99081.06;1723183;83;21477;-77
2022/06/14 04:28:52;;;;;;;14.87;6.92;;;;;;;22.04;55.03;99071.03;1712709;83;21531;-77
2022/06/14 04:31:38;;;;;;;12.47;5.10;;;;;;;22.06;54.81;99096.12;1679174;85;21058;-76
2022/06/14 04:34:18;;;;;;;8.63;6.45;;;;;;;22.05;55.08;99093.17;1701123;83;20954;-76
2022/06/14 04:36:57;;;;;;;7.75;6.97;;;;;;;22.02;55.47;99080.70;1725385;83;20987;-75
2022/06/14 04:39:33;;;;;;;11.50;7.92;;;;;;;21.99;55.85;99093.72;1717529;82;21045;-77
2022/06/14 04:42:11;;;;;;;9.90;8.95;;;;;;;21.90;56.49;99100.64;1707304;84;21037;-78
2022/06/14 04:45:13;;;;;;;15.72;11.35;;;;;;;21.77;57.18;99126.39;1707850;82;20995;-78
2022/06/14 04:47:45;;;;;;;16.35;10.55;;;;;;;21.63;58.00;99098.52;1710233;82;21795;-78
2022/06/14 04:50:24;;;;;;;15.90;7.97;;;;;;;21.48;58.72;99119.66;1710327;83;20939;-77
2022/06/14 04:53:03;;;;;;;12.68;7.47;;;;;;;21.34;59.51;99134.19;1710475;83;20950;-77
2022/06/14 04:55:33;;;;;;;12.10;7.55;;;;;;;21.09;60.23;99142.79;1681750;85;21295;-76
2022/06/14 04:58:16;;;;;;;8.00;6.75;;;;;;;20.89;61.51;99117.02;1657940;82;21598;-76
2022/06/14 05:00:57;;;;;;;13.15;7.65;;;;;;;20.75;62.58;99135.61;1666692;85;21054;-76
2022/06/14 05:03:32;;;;;;;11.28;6.87;;;;;;;20.69;62.92;99147.84;1689407;82;21053;-75
2022/06/14 05:06:16;;;;;;;10.98;7.17;;;;;;;20.64;63.33;99175.36;1734771;82;21037;-77
2022/06/14 05:08:58;;;;;;;9.55;6.50;;;;;;;20.47;63.72;99198.11;1723156;82;20990;-75
2022/06/14 05:11:37;;;;;;;14.28;7.42;;;;;;;20.30;64.57;99168.91;1710048;84;21015;-75
2022/06/14 05:14:16;;;;;;;6.17;5.03;;;;;;;20.17;65.54;99218.23;1704374;82;22555;-74
2022/06/14 05:17:13;;;;;;;11.35;4.92;;;;;;;20.02;66.56;99181.33;1709235;82;20900;-74
2022/06/14 05:19:49;;;;;;;10.82;5.17;;;;;;;19.87;67.29;99207.19;1709884;84;20979;-74
2022/06/14 05:22:24;;;;;;;7.40;4.97;;;;;;;19.71;68.15;99223.03;1718626;82;20981;-73
2022/06/14 05:24:51;;;;;;;5.83;3.65;;;;;;;19.56;68.73;99204.66;1717186;82;21042;-74
2022/06/14 05:27:38;;;;;;;7.05;5.28;;;;;;;19.45;69.27;99204.72;1709983;82;21157;-73
2022/06/14 05:30:16;;;;;;;5.58;4.05;;;;;;;19.36;69.68;99206.61;1709386;83;20963;-73
2022/06/14 05:33:00;;;;;;;4.97;4.17;;;;;;;19.29;70.14;99221.27;1708146;82;20954;-75
2022/06/14 05:35:42;;;;;;;9.70;3.83;;;;;;;19.26;70.61;99223.84;1675591;83;21027;-75
2022/06/14 05:38:23;;;;;;;6.95;4.37;;;;;;;19.24;70.83;99204.25;1710343;83;20942;-76
2022/06/14 05:41:13;;;;;;;4.85;4.03;;;;;;;19.22;70.81;99248.77;1709320;82;21098;-75
2022/06/14 05:43:52;;;;;;;4.67;3.87;;;;;;;19.17;70.71;99238.81;1703590;82;21559;-75
2022/06/14 05:46:33;;;;;;;3.40;3.10;;;;;;;19.13;70.73;99251.48;1709759;81;22152;-75
2022/06/14 05:49:12;;;;;;;6.03;3.12;;;;;;;19.05;70.74;99244.06;1689371;83;20975;-75
2022/06/14 05:51:57;;;;;;;4.50;3.60;;;;;;;18.96;71.11;99254.14;1709562;82;21039;-76
2022/06/14 05:54:31;;;;;;;5.35;2.92;;;;;;;18.93;71.22;99236.51;1710199;82;21720;-75
2022/06/14 05:57:06;;;;;;;3.10;2.83;;;;;;;18.93;71.47;99246.05;1681021;83;21459;-76
2022/06/14 05:59:38;;;;;;;2.45;2.27;;;;;;;18.95;71.36;99271.05;1709902;82;21492;-79
2022/06/14 06:02:25;;;;;;;2.52;2.08;;;;;;;18.96;70.80;99256.30;1710142;83;21492;-76
2022/06/14 06:05:21;;;;;;;3.55;2.30;;;;;;;18.97;70.75;99251.66;1710371;82;21082;-75
2022/06/14 06:07:53;;;;;;;2.52;2.12;;;;;;;18.95;70.68;99230.72;1681012;85;22162;-75
2022/06/14 06:10:26;;;;;;;2.17;1.98;;;;;;;18.95;70.69;99262.06;1706342;82;20900;-80
2022/06/14 06:12:57;;;;;;;6.78;2.60;;;;;;;18.93;70.73;99295.66;1709369;82;21114;-80
2022/06/14 06:15:29;;;;;;;5.45;2.62;;;;;;;18.91;70.83;99296.52;1710601;82;21021;-81
2022/06/14 06:18:00;;;;;;;2.52;2.25;;;;;;;18.88;70.85;99269.91;1710495;83;21062;-81
2022/06/14 06:20:41;;;;;;;2.00;1.90;;;;;;;18.85;70.85;99319.59;1726119;82;21196;-81
2022/06/14 06:23:25;;;;;;;2.22;2.08;;;;;;;18.84;70.96;99310.61;1733644;82;20990;-82
2022/06/14 06:25:54;;;;;;;2.37;2.17;;;;;;;18.83;71.24;99309.00;1709877;82;21063;-79
2022/06/14 06:28:29;;;;;;;9.90;2.40;;;;;;;18.83;71.65;99321.27;1709320;82;21591;-76
2022/06/14 06:31:17;;;;;;;2.35;1.90;;;;;;;18.87;71.69;99302.36;1709927;84;21027;-78
2022/06/14 06:33:50;;;;;;;1.98;1.80;;;;;;;18.92;71.58;99300.86;1710404;82;21122;-79
2022/06/14 06:36:52;;;;;;;3.47;2.40;;;;;;;18.97;71.23;99310.26;1681739;85;20954;-79
2022/06/14 06:39:37;;;;;;;1.95;1.65;;;;;;;19.02;70.61;99310.92;1653951;85;21106;-77
2022/06/14 06:42:39;;;;;;;1.50;1.40;;;;;;;19.07;69.24;99323.61;1684735;82;21579;-76
2022/06/14 06:45:17;;;;;;;7.65;1.75;;;;;;;19.05;67.32;99329.38;1710297;82;21018;-76
2022/06/14 06:48:09;;;;;;;2.40;1.27;;;;;;;19.02;66.58;99313.66;1710086;81;21146;-77
2022/06/14 06:50:45;;;;;;;2.10;1.47;;;;;;;18.99;66.65;99346.97;1710201;83;21007;-76
2022/06/14 06:53:25;;;;;;;1.30;1.20;;;;;;;18.90;67.25;99397.91;1710586;82;20919;-75
2022/06/14 06:55:56;;;;;;;1.05;1.05;;;;;;;18.77;68.34;99347.58;1731741;82;21025;-74
2022/06/14 06:58:31;;;;;;;1.00;1.00;;;;;;;18.61;69.42;99382.57;1714462;82;21007;-75
2022/06/14 07:01:02;;;;;;;2.67;1.20;;;;;;;18.43;70.73;99368.55;1709578;82;22080;-75
2022/06/14 07:03:40;;;;;;;1.98;1.50;;;;;;;18.21;72.29;99366.08;1710137;83;20911;-75
2022/06/14 07:06:19;;;;;;;1.45;1.35;;;;;;;18.07;73.39;99412.95;1720406;82;21006;-75
2022/06/14 07:08:59;;;;;;;1.85;1.37;;;;;;;17.99;74.36;99425.09;1705840;82;21528;-80
2022/06/14 07:11:34;;;;;;;2.65;1.87;;;;;;;17.92;75.50;99407.03;1709871;82;21562;-81
2022/06/14 07:14:15;;;;;;;4.20;2.50;;;;;;;17.74;81.07;99383.73;1710452;82;21070;-81
2022/06/14 07:17:04;;;;;;;2.27;1.80;;;;;;;17.44;86.26;99393.84;1709762;82;20991;-77
2022/06/14 07:19:42;;;;;;;3.65;1.95;;;;;;;17.18;86.94;99396.77;1704101;83;20920;-77
2022/06/14 07:22:23;;;;;;;1.72;1.60;;;;;;;16.91;88.20;99401.07;1712453;82;20966;-77
2022/06/14 07:25:18;;;;;;;6.65;2.50;;;;;;;16.77;90.18;99381.77;1689849;82;21119;-74
2022/06/14 07:28:19;;;;;;;2.45;2.10;;;;;;;16.67;91.22;99387.36;1710095;84;21588;-72
2022/06/14 07:30:50;;;;;;;6.85;1.82;;;;;;;16.60;92.38;99398.59;1717747;82;21054;-74
2022/06/14 07:33:18;;;;;;;3.37;1.90;;;;;;;16.53;92.87;99426.11;1718909;82;20974;-74
2022/06/14 07:35:54;;;;;;;1.77;1.67;;;;;;;16.46;93.23;99440.59;1710362;83;20946;-74
2022/06/14 07:38:39;;;;;;;1.70;1.32;;;;;;;16.41;93.38;99433.08;1709946;82;21039;-72
2022/06/14 07:41:42;;;;;;;2.10;1.90;;;;;;;16.39;94.01;99433.94;1711787;82;49739;-73
2022/06/14 07:44:27;;;;;;;4.97;2.47;;;;;;;16.38;94.73;99433.67;1681870;83;21566;-75
2022/06/14 07:47:03;;;;;;;2.50;2.30;;;;;;;16.40;95.64;99444.48;1716049;80;21001;-72
2022/06/14 07:49:54;;;;;;;3.15;2.80;;;;;;;16.48;96.60;99443.83;1707338;84;20951;-77
2022/06/14 07:52:49;;;;;;;3.08;2.72;;;;;;;16.58;97.51;99452.41;1707670;83;21023;-78
2022/06/14 07:55:29;;;;;;;3.75;2.98;;;;;;;16.65;97.52;99456.09;1707218;84;21181;-77
2022/06/14 07:58:26;;;;;;;4.03;2.77;;;;;;;16.72;97.43;99434.80;1707253;84;20982;-82
2022/06/14 08:01:09;;;;;;;2.20;2.00;;;;;;;16.76;97.03;99457.55;1706700;83;21020;-78
2022/06/14 08:03:44;;;;;;;3.98;2.62;;;;;;;16.80;95.80;99476.22;1679052;85;21062;-80
2022/06/14 08:06:32;;;;;;;2.67;2.37;;;;;;;16.83;93.76;99459.36;1687849;82;21025;-77
2022/06/14 08:09:12;;;;;;;3.30;3.00;;;;;;;16.86;91.15;99471.78;1724791;83;21975;-83
2022/06/14 08:11:53;;;;;;;2.70;2.50;;;;;;;16.91;89.12;99470.34;1709651;83;21092;-80
2022/06/14 08:14:39;;;;;;;2.22;2.12;;;;;;;16.95;88.85;99470.55;1718911;83;21469;-80
2022/06/14 08:17:08;;;;;;;2.42;2.12;;;;;;;16.98;88.07;99458.53;1678880;85;21043;-82
2022/06/14 08:19:42;;;;;;;2.27;2.08;;;;;;;17.03;87.36;99454.11;1687617;82;21028;-80
2022/06/14 08:22:13;;;;;;;2.40;1.98;;;;;;;17.10;86.96;99436.87;1707379;82;21289;-82
2022/06/14 08:24:45;;;;;;;3.37;2.17;;;;;;;17.17;86.63;99459.05;1707616;84;20955;-81
2022/06/14 08:27:17;;;;;;;2.22;2.02;;;;;;;17.24;85.63;99453.47;1711401;82;21130;-81
2022/06/14 08:29:48;;;;;;;2.52;2.33;;;;;;;17.30;83.33;99464.52;1724364;83;21049;-85
2022/06/14 08:32:24;;;;;;;2.30;1.95;;;;;;;17.36;83.03;99487.77;1736966;82;21051;-80
2022/06/14 08:35:08;;;;;;;3.55;2.42;;;;;;;17.45;81.85;99481.11;1709198;82;21802;-82
2022/06/14 08:37:41;;;;;;;2.45;1.98;;;;;;;17.58;80.91;99463.18;1724626;82;21007;-82
2022/06/14 08:40:40;;;;;;;5.20;2.15;;;;;;;17.72;78.43;99455.30;1706370;82;21060;-83
2022/06/14 08:43:12;;;;;;;1.57;1.47;;;;;;;17.85;76.92;99487.69;1680151;82;21137;-81
2022/06/14 08:45:44;;;;;;;1.72;1.62;;;;;;;17.95;76.24;99468.99;1707613;82;21381;-80
2022/06/14 08:48:43;;;;;;;3.52;2.45;;;;;;;18.02;75.86;99466.69;1707367;83;21936;-86
2022/06/14 08:51:42;;;;;;;2.47;1.30;;;;;;;18.08;75.98;99470.92;1710190;83;21567;-86
2022/06/14 08:54:25;;;;;;;1.65;1.55;;;;;;;18.15;73.81;99476.73;1711146;82;21021;-83
2022/06/14 08:57:40;;;;;;;1.57;1.47;;;;;;;18.26;72.71;99496.65;1709712;82;21100;-82
2022/06/14 09:00:29;;;;;;;1.40;1.30;;;;;;;18.34;70.23;99493.75;1713537;82;21075;-80
2022/06/14 09:03:52;;;;;;;2.77;1.52;;;;;;;18.41;70.98;99482.45;1743827;81;21201;-81
2022/06/14 09:06:35;;;;;;;1.70;1.60;;;;;;;18.46;68.37;99518.55;1736497;82;20982;-84
2022/06/14 09:09:59;;;;;;;2.92;1.40;;;;;;;18.49;65.83;99518.48;1705574;82;21028;-84
2022/06/14 09:13:00;;;;;;;4.05;2.10;;;;;;;18.45;66.38;99518.84;1739083;81;21074;-84
2022/06/14 09:16:09;;;;;;;1.72;1.62;;;;;;;18.37;67.53;99496.43;1737102;81;21057;-87
2022/06/14 09:18:58;;;;;;;1.40;1.30;;;;;;;18.35;66.58;99518.52;1727360;81;21202;-85
2022/06/14 09:22:05;;;;;;;1.90;1.40;;;;;;;18.28;64.67;99507.21;1736937;81;21103;-90
2022/06/14 09:24:58;;;;;;;1.57;1.37;;;;;;;18.30;65.80;99520.79;1736100;81;21069;-81
2022/06/14 09:27:43;;;;;;;1.95;1.85;;;;;;;18.36;63.10;99523.41;1725043;82;20994;-85
2022/06/14 09:30:32;;;;;;;2.10;1.52;;;;;;;18.41;62.76;99510.48;1750531;81;21050;-81
2022/06/14 09:33:31;;;;;;;1.07;1.00;;;;;;;18.44;61.72;99509.87;1746184;81;22505;-79
2022/06/14 09:36:26;;;;;;;2.40;1.70;;;;;;;18.48;61.33;99524.48;1688414;82;21010;-83
2022/06/14 09:39:25;;;;;;;1.55;1.20;;;;;;;18.52;60.35;99523.30;1735492;82;21049;-82
2022/06/14 09:42:24;;;;;;;2.72;1.75;;;;;;;18.53;60.86;99523.56;1735577;81;21176;-73
2022/06/14 09:45:06;;;;;;;2.42;1.72;;;;;;;18.54;61.42;99510.23;1706801;81;21441;-76
2022/06/14 09:48:09;;;;;;;2.10;1.90;;;;;;;18.60;61.11;99523.44;1733677;80;21244;-76
2022/06/14 09:51:26;;;;;;;2.33;2.13;;;;;;;18.63;62.54;99523.38;1726528;82;21043;-75
2022/06/14 09:54:29;;;;;;;1.67;1.47;;;;;;;18.65;61.96;99516.52;1734015;82;20959;-76
2022/06/14 09:57:29;;;;;;;1.57;1.47;;;;;;;18.64;62.41;99518.98;1735980;81;21073;-77
2022/06/14 10:00:14;;;;;;;2.20;1.80;;;;;;;18.58;60.53;99537.10;1734760;81;21457;-76
2022/06/14 10:03:19;;;;;;;2.08;1.98;;;;;;;18.55;60.03;99543.17;1726008;81;21113;-73
2022/06/14 10:06:12;;;;;;;1.80;1.70;;;;;;;18.57;60.87;99518.59;1733728;81;21045;-74
2022/06/14 10:09:04;;;;;;;;;;;;;;;18.68;60.50;99516.45;1732387;83;21025;-77
2022/06/14 10:11:58;;;;;;;1.75;1.65;;;;;;;18.75;60.83;99563.16;1732108;81;20161;-82
2022/06/14 10:15:00;;;;;;;;;;;;;;;18.84;58.46;99531.89;1647837;82;20977;-78
2022/06/14 10:18:04;;;;;;;1.70;1.60;;;;;;;18.84;58.01;99535.98;1741701;81;21149;-76
2022/06/14 10:21:00;;;;;;;3.95;1.60;;;;;;;18.78;57.42;99563.09;1739573;81;21060;-73
2022/06/14 10:23:39;;;;;;;2.52;1.67;;;;;;;18.76;57.99;99542.14;1748029;81;20954;-75
2022/06/14 10:29:41;;;;;;;8.00;1.80;;;;;;;18.81;58.69;99562.47;1746929;81;20928;-81
2022/06/14 10:32:38;;;;;;;3.10;1.42;;;;;;;18.93;58.40;99535.49;1758856;81;20970;-76
2022/06/14 10:35:33;;;;;;;3.12;1.70;;;;;;;19.01;58.14;99532.02;1758404;81;21550;-76
2022/06/14 10:38:12;;;;;;;1.65;1.55;;;;;;;19.09;57.65;99554.45;1739769;81;21021;-81
2022/06/14 10:40:56;;;;;;;2.72;1.40;;;;;;;19.09;55.65;99525.81;1728440;82;20972;-81
2022/06/14 10:43:55;;;;;;;1.57;1.47;;;;;;;19.09;54.63;99533.44;1735111;81;21030;-80
2022/06/14 10:46:26;;;;;;;1.62;1.52;;;;;;;19.11;55.43;99518.15;1735585;82;21119;-80
2022/06/14 10:49:32;;;;;;;2.83;1.60;;;;;;;19.16;55.94;99531.66;1724881;80;20959;-79
2022/06/14 10:52:22;;;;;;;2.17;1.62;;;;;;;19.15;55.89;99529.48;1725758;83;21567;-78
2022/06/14 10:55:24;;;;;;;3.02;1.60;;;;;;;19.16;55.92;99510.66;1722609;83;21580;-78
2022/06/14 10:58:23;;;;;;;3.87;1.70;;;;;;;19.25;56.18;99511.26;1728257;81;21018;-79
2022/06/14 11:01:14;;;;;;;1.98;1.87;;;;;;;19.38;55.15;99542.55;1719576;83;21564;-78
2022/06/14 11:04:18;;;;;;;1.57;1.47;;;;;;;19.53;54.15;99534.00;1698773;83;20975;-76
2022/06/14 11:06:59;;;;;;;3.77;1.65;;;;;;;19.63;53.10;99515.20;1698238;83;21541;-76
2022/06/14 11:09:56;;;;;;;1.80;1.70;;;;;;;19.65;53.37;99499.33;1704110;82;21008;-78
2022/06/14 11:13:04;;;;;;;2.65;2.40;;;;;;;19.69;53.61;99504.40;1706721;83;21164;-80
2022/06/14 11:15:56;;;;;;;1.85;1.75;;;;;;;19.74;53.53;99512.45;1675790;85;21143;-75
2022/06/14 11:18:31;;;;;;;2.95;1.80;;;;;;;19.74;52.79;99511.09;1688015;84;21564;-76
2022/06/14 11:21:41;;;;;;;2.35;1.75;;;;;;;19.83;52.07;99493.38;1698633;84;21007;-78
2022/06/14 11:24:16;;;;;;;2.00;1.80;;;;;;;19.89;51.13;99490.20;1697725;84;21071;-74
2022/06/14 11:26:57;;;;;;;2.02;1.77;;;;;;;20.02;51.25;99494.73;1698676;84;21563;-80
2022/06/14 11:29:53;;;;;;;2.00;1.85;;;;;;;20.18;51.06;99507.39;1717123;82;21888;-82
2022/06/14 11:32:43;;;;;;;3.90;1.95;;;;;;;20.31;50.89;99494.19;1733887;82;21070;-80
2022/06/14 11:35:39;;;;;;;2.35;1.90;;;;;;;20.41;51.50;99507.55;1729172;82;20999;-78
2022/06/14 11:38:46;;;;;;;2.22;1.95;;;;;;;20.48;51.20;99515.25;1699576;82;20991;-78
2022/06/14 11:41:14;;;;;;;2.50;2.30;;;;;;;20.43;51.25;99516.80;1712562;83;20980;-77
2022/06/14 11:44:22;;;;;;;1.85;1.57;;;;;;;20.43;51.84;99492.98;1705000;82;21134;-77
2022/06/14 11:47:07;;;;;;;1.80;1.70;;;;;;;20.53;51.00;99495.19;1734252;82;21128;-77
2022/06/14 11:50:11;;;;;;;1.60;1.50;;;;;;;20.58;50.98;99490.34;1712055;82;20987;-79
2022/06/14 11:53:04;;;;;;;2.55;2.35;;;;;;;20.68;50.46;99500.97;1704559;84;21590;-82
2022/06/14 11:55:59;;;;;;;2.37;1.75;;;;;;;20.70;48.90;99489.16;1706422;82;21043;-80
2022/06/14 11:58:59;;;;;;;2.02;1.45;;;;;;;20.76;48.62;99485.71;1719455;82;21841;-77
2022/06/14 12:01:44;;;;;;;2.77;1.70;;;;;;;20.81;48.59;99506.83;1687947;84;20986;-76
2022/06/14 12:04:19;;;;;;;3.45;2.35;;;;;;;20.87;47.97;99485.05;1694117;84;21004;-77
2022/06/14 12:06:54;;;;;;;2.42;1.95;;;;;;;21.00;47.89;99533.06;1704362;84;21012;-73
2022/06/14 12:09:58;;;;;;;2.02;1.92;;;;;;;21.03;47.52;99500.95;1706538;82;21007;-75
2022/06/14 12:13:07;;;;;;;2.52;2.20;;;;;;;21.06;46.84;99503.03;1731859;82;21278;-74
2022/06/14 12:16:13;;;;;;;2.92;1.70;;;;;;;21.10;47.48;99499.33;1729196;83;21022;-81
2022/06/14 12:18:51;;;;;;;4.25;2.85;;;;;;;21.15;47.39;99490.98;1729552;82;21501;-77
2022/06/14 12:21:44;;;;;;;4.00;2.12;;;;;;;21.24;46.86;99503.30;1729760;83;21008;-74
2022/06/14 12:24:17;;;;;;;5.12;2.47;;;;;;;21.28;46.75;99497.42;1704050;83;21156;-71
2022/06/14 12:26:59;;;;;;;2.58;2.15;;;;;;;21.40;44.92;99497.53;1706303;82;21774;-81
2022/06/14 12:29:37;;;;;;;9.08;2.20;;;;;;;21.54;42.37;99524.70;1702124;83;20946;-76
2022/06/14 12:32:29;;;;;;;2.70;2.50;;;;;;;21.66;41.90;99505.68;1695013;84;21236;-82
2022/06/14 12:35:07;;;;;;;2.80;1.87;;;;;;;21.80;41.75;99485.73;1698350;83;21035;-78
2022/06/14 12:37:42;;;;;;;4.25;2.62;;;;;;;21.95;41.67;99520.02;1706467;82;21083;-82
2022/06/14 12:40:28;;;;;;;5.05;2.20;;;;;;;21.98;42.93;99508.39;1702781;84;21237;-80
2022/06/14 12:43:12;;;;;;;2.12;1.92;;;;;;;21.93;43.98;99501.16;1708383;82;20996;-77
2022/06/14 12:46:02;;;;;;;4.87;2.05;;;;;;;21.92;44.12;99502.25;1702742;82;21043;-77
2022/06/14 12:48:43;;;;;;;2.45;1.75;;;;;;;22.02;43.44;99492.89;1703005;82;21019;-83
2022/06/14 12:51:30;;;;;;;2.77;2.05;;;;;;;22.19;42.40;99499.66;1704224;83;21090;-82
2022/06/14 12:54:24;;;;;;;2.15;1.90;;;;;;;22.31;42.05;99495.63;1705216;82;21240;-80
2022/06/14 12:56:56;;;;;;;2.00;1.85;;;;;;;22.40;42.14;99495.56;1701373;81;21017;-78
2022/06/14 12:59:46;;;;;;;2.92;2.12;;;;;;;22.53;41.55;99530.97;1674696;83;20981;-80